sensor_id;sensor_type;location;lat;lon;timestamp;pressure;altitude;pressure_sealevel;temperature;humidity
46456;BME280;64052;47.466;9.094;2023-04-06T00:04:06;95913.75;;;8.18;39.10
46456;BME280;64052;47.466;9.094;2023-04-06T00:09:08;95906.75;;;7.94;39.77
46456;BME280;64052;47.466;9.094;2023-04-06T00:14:10;95905.28;;;7.90;39.85
46456;BME280;64052;47.466;9.094;2023-04-06T00:19:11;95904.78;;;8.09;39.75
46456;BME280;64052;47.466;9.094;2023-04-06T00:24:13;95900.66;;;8.29;38.67
46456;BME280;64052;47.466;9.094;2023-04-06T00:29:14;95894.59;;;8.40;38.55
46456;BME280;64052;47.466;9.094;2023-04-06T00:34:16;95895.94;;;8.10;38.26
46456;BME280;64052;47.466;9.094;2023-04-06T00:39:17;95891.66;;;8.21;38.54
46456;BME280;64052;47.466;9.094;2023-04-06T00:44:22;95885.59;;;8.20;37.59
46456;BME280;64052;47.466;9.094;2023-04-06T00:49:23;95885.81;;;8.17;38.81
46456;BME280;64052;47.466;9.094;2023-04-06T00:54:25;95885.09;;;8.26;38.58
46456;BME280;64052;47.466;9.094;2023-04-06T00:59:28;95882.88;;;8.44;38.07
46456;BME280;64052;47.466;9.094;2023-04-06T01:04:31;95880.47;;;8.30;38.02
46456;BME280;64052;47.466;9.094;2023-04-06T01:09:34;95877.97;;;8.28;37.94
46456;BME280;64052;47.466;9.094;2023-04-06T01:14:40;95874.97;;;8.22;38.48
46456;BME280;64052;47.466;9.094;2023-04-06T01:19:42;95869.34;;;8.15;38.28
46456;BME280;64052;47.466;9.094;2023-04-06T01:24:51;95873.28;;;8.09;38.74
46456;BME280;64052;47.466;9.094;2023-04-06T01:30:00;95869.47;;;8.25;38.67
46456;BME280;64052;47.466;9.094;2023-04-06T01:35:18;95861.06;;;8.08;38.23
46456;BME280;64052;47.466;9.094;2023-04-06T01:40:30;95857.84;;;8.05;38.68
46456;BME280;64052;47.466;9.094;2023-04-06T01:45:32;95856.97;;;7.93;38.99
46456;BME280;64052;47.466;9.094;2023-04-06T01:50:43;95852.34;;;7.96;39.33
46456;BME280;64052;47.466;9.094;2023-04-06T01:55:48;95859.50;;;7.94;38.66
46456;BME280;64052;47.466;9.094;2023-04-06T02:00:57;95841.13;;;7.94;38.83
46456;BME280;64052;47.466;9.094;2023-04-06T02:06:02;95850.63;;;7.84;38.28
46456;BME280;64052;47.466;9.094;2023-04-06T02:11:09;95857.38;;;7.51;39.47
46456;BME280;64052;47.466;9.094;2023-04-06T02:16:19;95856.34;;;7.29;40.26
46456;BME280;64052;47.466;9.094;2023-04-06T02:21:20;95856.94;;;7.32;39.60
46456;BME280;64052;47.466;9.094;2023-04-06T02:26:22;95854.88;;;7.25;40.25
46456;BME280;64052;47.466;9.094;2023-04-06T02:31:23;95854.78;;;7.13;40.24
46456;BME280;64052;47.466;9.094;2023-04-06T02:36:26;95857.75;;;7.09;40.01
46456;BME280;64052;47.466;9.094;2023-04-06T02:41:28;95851.47;;;7.11;40.40
46456;BME280;64052;47.466;9.094;2023-04-06T02:46:31;95850.19;;;7.17;41.09
46456;BME280;64052;47.466;9.094;2023-04-06T02:51:33;95843.97;;;7.18;40.63
46456;BME280;64052;47.466;9.094;2023-04-06T02:56:48;95851.03;;;7.17;41.33
46456;BME280;64052;47.466;9.094;2023-04-06T03:01:51;95848.00;;;7.11;40.83
46456;BME280;64052;47.466;9.094;2023-04-06T03:06:54;95837.84;;;7.06;40.84
46456;BME280;64052;47.466;9.094;2023-04-06T03:12:06;95847.13;;;7.23;40.01
46456;BME280;64052;47.466;9.094;2023-04-06T03:17:26;95845.00;;;7.28;40.48
46456;BME280;64052;47.466;9.094;2023-04-06T03:22:33;95839.34;;;7.35;39.94
46456;BME280;64052;47.466;9.094;2023-04-06T03:27:36;95838.16;;;7.39;39.46
46456;BME280;64052;47.466;9.094;2023-04-06T03:32:39;95839.84;;;7.27;39.75
46456;BME280;64052;47.466;9.094;2023-04-06T03:37:41;95837.13;;;7.28;39.80
46456;BME280;64052;47.466;9.094;2023-04-06T03:42:42;95838.09;;;7.27;39.00
46456;BME280;64052;47.466;9.094;2023-04-06T03:47:47;95847.34;;;7.20;38.88
46456;BME280;64052;47.466;9.094;2023-04-06T03:52:49;95840.31;;;7.21;39.71
46456;BME280;64052;47.466;9.094;2023-04-06T03:57:50;95847.72;;;7.27;39.19
46456;BME280;64052;47.466;9.094;2023-04-06T04:02:52;95850.63;;;7.11;39.46
46456;BME280;64052;47.466;9.094;2023-04-06T04:07:55;95857.31;;;7.15;38.92
46456;BME280;64052;47.466;9.094;2023-04-06T04:13:00;95853.28;;;7.22;39.59
46456;BME280;64052;47.466;9.094;2023-04-06T04:18:01;95855.72;;;7.25;39.48
46456;BME280;64052;47.466;9.094;2023-04-06T04:23:03;95862.97;;;7.22;39.58
46456;BME280;64052;47.466;9.094;2023-04-06T04:28:07;95865.75;;;7.07;39.94
46456;BME280;64052;47.466;9.094;2023-04-06T04:33:10;95859.38;;;6.98;40.34
46456;BME280;64052;47.466;9.094;2023-04-06T04:38:12;95861.81;;;6.75;40.45
46456;BME280;64052;47.466;9.094;2023-04-06T04:43:16;95864.53;;;6.74;40.81
46456;BME280;64052;47.466;9.094;2023-04-06T04:48:18;95863.03;;;6.83;40.18
46456;BME280;64052;47.466;9.094;2023-04-06T04:53:26;95867.16;;;6.74;40.20
46456;BME280;64052;47.466;9.094;2023-04-06T04:58:34;95872.94;;;6.79;40.82
46456;BME280;64052;47.466;9.094;2023-04-06T05:03:36;95870.94;;;6.70;40.30
46456;BME280;64052;47.466;9.094;2023-04-06T05:08:41;95866.22;;;6.62;41.03
46456;BME280;64052;47.466;9.094;2023-04-06T05:13:43;95874.38;;;6.70;40.50
46456;BME280;64052;47.466;9.094;2023-04-06T05:18:55;95879.44;;;6.73;40.30
46456;BME280;64052;47.466;9.094;2023-04-06T05:24:01;95882.56;;;6.92;40.01
46456;BME280;64052;47.466;9.094;2023-04-06T05:29:05;95882.56;;;6.92;39.88
46456;BME280;64052;47.466;9.094;2023-04-06T05:34:10;95886.03;;;6.79;40.28
46456;BME280;64052;47.466;9.094;2023-04-06T05:39:15;95888.94;;;6.87;40.31
46456;BME280;64052;47.466;9.094;2023-04-06T05:44:23;95892.81;;;6.95;40.53
46456;BME280;64052;47.466;9.094;2023-04-06T05:49:35;95899.81;;;7.07;40.43
46456;BME280;64052;47.466;9.094;2023-04-06T05:54:38;95904.63;;;7.13;40.39
46456;BME280;64052;47.466;9.094;2023-04-06T05:59:40;95903.66;;;7.27;39.78
46456;BME280;64052;47.466;9.094;2023-04-06T06:04:44;95907.53;;;7.35;40.12
46456;BME280;64052;47.466;9.094;2023-04-06T06:09:46;95912.63;;;7.36;40.22
46456;BME280;64052;47.466;9.094;2023-04-06T06:14:54;95910.47;;;7.54;39.53
46456;BME280;64052;47.466;9.094;2023-04-06T06:19:58;95915.25;;;7.73;39.26
46456;BME280;64052;47.466;9.094;2023-04-06T06:25:02;95912.91;;;7.82;39.85
46456;BME280;64052;47.466;9.094;2023-04-06T06:30:04;95917.13;;;7.96;40.25
46456;BME280;64052;47.466;9.094;2023-04-06T06:35:07;95913.47;;;8.10;39.57
46456;BME280;64052;47.466;9.094;2023-04-06T06:40:09;95915.28;;;8.21;39.40
46456;BME280;64052;47.466;9.094;2023-04-06T06:45:11;95909.56;;;8.15;39.68
46456;BME280;64052;47.466;9.094;2023-04-06T06:50:14;95912.00;;;8.30;39.67
46456;BME280;64052;47.466;9.094;2023-04-06T06:55:16;95919.13;;;8.52;37.38
46456;BME280;64052;47.466;9.094;2023-04-06T07:00:18;95925.38;;;8.74;37.22
46456;BME280;64052;47.466;9.094;2023-04-06T07:05:20;95915.81;;;8.73;36.76
46456;BME280;64052;47.466;9.094;2023-04-06T07:10:31;95922.28;;;8.92;36.43
46456;BME280;64052;47.466;9.094;2023-04-06T07:15:33;95919.53;;;9.05;36.30
46456;BME280;64052;47.466;9.094;2023-04-06T07:20:34;95924.44;;;9.21;37.56
46456;BME280;64052;47.466;9.094;2023-04-06T07:25:37;95916.00;;;9.50;36.16
46456;BME280;64052;47.466;9.094;2023-04-06T07:30:38;95924.13;;;9.58;36.03
46456;BME280;64052;47.466;9.094;2023-04-06T07:35:42;95920.50;;;9.82;36.26
46456;BME280;64052;47.466;9.094;2023-04-06T07:40:45;95924.59;;;10.07;36.31
46456;BME280;64052;47.466;9.094;2023-04-06T07:45:52;95927.81;;;10.11;33.66
46456;BME280;64052;47.466;9.094;2023-04-06T07:51:05;95924.63;;;10.29;33.78
46456;BME280;64052;47.466;9.094;2023-04-06T07:56:12;95922.75;;;10.19;34.60
46456;BME280;64052;47.466;9.094;2023-04-06T08:01:17;95922.16;;;10.48;34.51
46456;BME280;64052;47.466;9.094;2023-04-06T08:06:21;95918.94;;;10.66;34.35
46456;BME280;64052;47.466;9.094;2023-04-06T08:11:31;95914.69;;;10.75;34.75
46456;BME280;64052;47.466;9.094;2023-04-06T08:16:34;95914.22;;;10.91;33.44
46456;BME280;64052;47.466;9.094;2023-04-06T08:21:36;95916.47;;;10.95;33.06
46456;BME280;64052;47.466;9.094;2023-04-06T08:26:38;95916.59;;;10.94;32.84
46456;BME280;64052;47.466;9.094;2023-04-06T08:31:41;95916.38;;;11.07;31.43
46456;BME280;64052;47.466;9.094;2023-04-06T08:36:46;95909.66;;;11.34;33.57
46456;BME280;64052;47.466;9.094;2023-04-06T08:41:52;95904.56;;;11.42;31.76
46456;BME280;64052;47.466;9.094;2023-04-06T08:46:57;95912.31;;;11.44;32.98
46456;BME280;64052;47.466;9.094;2023-04-06T08:52:02;95905.97;;;11.66;32.11
46456;BME280;64052;47.466;9.094;2023-04-06T08:57:07;95905.59;;;12.00;32.60
46456;BME280;64052;47.466;9.094;2023-04-06T09:02:15;95899.38;;;12.21;32.35
46456;BME280;64052;47.466;9.094;2023-04-06T09:12:42;95888.34;;;13.03;32.96
46456;BME280;64052;47.466;9.094;2023-04-06T09:17:44;95888.56;;;13.19;31.66
46456;BME280;64052;47.466;9.094;2023-04-06T09:28:09;95878.84;;;13.48;30.36
46456;BME280;64052;47.466;9.094;2023-04-06T09:33:11;95879.56;;;13.40;27.74
46456;BME280;64052;47.466;9.094;2023-04-06T09:43:36;95882.94;;;13.60;26.50
46456;BME280;64052;47.466;9.094;2023-04-06T09:48:38;95872.78;;;13.56;27.50
46456;BME280;64052;47.466;9.094;2023-04-06T09:53:41;95867.34;;;13.94;27.83
46456;BME280;64052;47.466;9.094;2023-04-06T09:58:47;95866.91;;;14.16;26.51
46456;BME280;64052;47.466;9.094;2023-04-06T10:09:07;95855.41;;;14.52;27.88
46456;BME280;64052;47.466;9.094;2023-04-06T10:14:09;95861.28;;;14.64;26.27
46456;BME280;64052;47.466;9.094;2023-04-06T10:19:20;95860.53;;;14.54;26.74
46456;BME280;64052;47.466;9.094;2023-04-06T10:24:24;95862.88;;;14.57;26.14
46456;BME280;64052;47.466;9.094;2023-04-06T10:29:25;95858.59;;;14.82;26.92
46456;BME280;64052;47.466;9.094;2023-04-06T10:34:37;95858.38;;;15.02;26.24
46456;BME280;64052;47.466;9.094;2023-04-06T10:39:54;95852.75;;;15.48;23.81
46456;BME280;64052;47.466;9.094;2023-04-06T10:44:55;95842.22;;;16.48;23.13
46456;BME280;64052;47.466;9.094;2023-04-06T10:49:58;95848.47;;;16.88;22.78
46456;BME280;64052;47.466;9.094;2023-04-06T10:55:00;95848.56;;;16.22;21.78
46456;BME280;64052;47.466;9.094;2023-04-06T11:00:06;95852.72;;;15.40;21.34
46456;BME280;64052;47.466;9.094;2023-04-06T11:05:11;95846.41;;;15.41;22.87
46456;BME280;64052;47.466;9.094;2023-04-06T11:21:00;95839.66;;;15.71;23.11
46456;BME280;64052;47.466;9.094;2023-04-06T11:31:41;95825.38;;;15.56;22.38
46456;BME280;64052;47.466;9.094;2023-04-06T11:36:44;95827.44;;;15.27;23.16
46456;BME280;64052;47.466;9.094;2023-04-06T11:47:10;95821.13;;;15.96;24.29
46456;BME280;64052;47.466;9.094;2023-04-06T11:57:19;95816.28;;;16.41;22.97
46456;BME280;64052;47.466;9.094;2023-04-06T12:02:21;95817.31;;;16.32;22.39
46456;BME280;64052;47.466;9.094;2023-04-06T12:07:22;95804.50;;;15.94;23.62
46456;BME280;64052;47.466;9.094;2023-04-06T12:12:26;95798.47;;;15.67;24.16
46456;BME280;64052;47.466;9.094;2023-04-06T12:17:28;95798.63;;;15.66;22.59
46456;BME280;64052;47.466;9.094;2023-04-06T12:22:29;95797.53;;;15.93;22.05
46456;BME280;64052;47.466;9.094;2023-04-06T12:27:31;95784.03;;;16.44;20.93
46456;BME280;64052;47.466;9.094;2023-04-06T12:32:33;95792.03;;;16.20;21.19
46456;BME280;64052;47.466;9.094;2023-04-06T12:37:34;95795.38;;;16.05;20.56
46456;BME280;64052;47.466;9.094;2023-04-06T12:42:36;95788.69;;;16.34;20.67
46456;BME280;64052;47.466;9.094;2023-04-06T12:47:39;95786.13;;;16.66;22.06
46456;BME280;64052;47.466;9.094;2023-04-06T12:52:41;95788.34;;;16.29;18.13
46456;BME280;64052;47.466;9.094;2023-04-06T12:57:42;95784.53;;;16.23;21.03
46456;BME280;64052;47.466;9.094;2023-04-06T13:02:44;95792.72;;;16.22;21.09
46456;BME280;64052;47.466;9.094;2023-04-06T13:07:46;95786.38;;;16.23;20.19
46456;BME280;64052;47.466;9.094;2023-04-06T13:12:47;95789.31;;;16.53;20.67
46456;BME280;64052;47.466;9.094;2023-04-06T13:17:49;95778.09;;;16.82;19.52
46456;BME280;64052;47.466;9.094;2023-04-06T13:22:50;95779.31;;;16.71;20.60
46456;BME280;64052;47.466;9.094;2023-04-06T13:27:53;95778.50;;;16.54;20.73
46456;BME280;64052;47.466;9.094;2023-04-06T13:32:54;95774.28;;;16.12;21.36
46456;BME280;64052;47.466;9.094;2023-04-06T13:37:58;95773.41;;;15.86;20.88
46456;BME280;64052;47.466;9.094;2023-04-06T13:43:04;95762.75;;;16.28;19.60
46456;BME280;64052;47.466;9.094;2023-04-06T13:53:30;95765.34;;;16.61;20.04
46456;BME280;64052;47.466;9.094;2023-04-06T13:58:31;95763.25;;;16.40;19.63
46456;BME280;64052;47.466;9.094;2023-04-06T14:03:33;95765.41;;;16.28;20.01
46456;BME280;64052;47.466;9.094;2023-04-06T14:08:36;95757.66;;;16.66;19.95
46456;BME280;64052;47.466;9.094;2023-04-06T14:13:38;95765.88;;;16.48;18.11
46456;BME280;64052;47.466;9.094;2023-04-06T14:18:40;95759.31;;;16.02;18.94
46456;BME280;64052;47.466;9.094;2023-04-06T14:23:41;95755.13;;;16.33;20.07
46456;BME280;64052;47.466;9.094;2023-04-06T14:28:44;95758.88;;;16.47;20.68
46456;BME280;64052;47.466;9.094;2023-04-06T14:33:46;95757.50;;;16.68;19.64
46456;BME280;64052;47.466;9.094;2023-04-06T14:38:48;95756.38;;;16.54;20.52
46456;BME280;64052;47.466;9.094;2023-04-06T14:43:50;95753.25;;;16.50;20.31
46456;BME280;64052;47.466;9.094;2023-04-06T14:48:54;95751.09;;;16.94;20.58
46456;BME280;64052;47.466;9.094;2023-04-06T14:53:56;95750.56;;;16.98;20.05
46456;BME280;64052;47.466;9.094;2023-04-06T14:58:58;95748.47;;;17.25;19.88
46456;BME280;64052;47.466;9.094;2023-04-06T15:04:00;95747.78;;;17.32;20.34
46456;BME280;64052;47.466;9.094;2023-04-06T15:09:03;95751.34;;;17.47;19.84
46456;BME280;64052;47.466;9.094;2023-04-06T15:14:05;95745.41;;;17.37;20.44
46456;BME280;64052;47.466;9.094;2023-04-06T15:19:07;95745.19;;;17.15;19.78
46456;BME280;64052;47.466;9.094;2023-04-06T15:24:09;95734.22;;;17.41;19.51
46456;BME280;64052;47.466;9.094;2023-04-06T15:29:10;95737.47;;;17.98;19.68
46456;BME280;64052;47.466;9.094;2023-04-06T15:34:12;95735.97;;;18.34;19.65
46456;BME280;64052;47.466;9.094;2023-04-06T15:39:13;95729.53;;;18.29;18.73
46456;BME280;64052;47.466;9.094;2023-04-06T15:44:15;95732.75;;;18.09;19.41
46456;BME280;64052;47.466;9.094;2023-04-06T15:49:16;95731.75;;;18.02;19.45
46456;BME280;64052;47.466;9.094;2023-04-06T15:54:18;95731.91;;;17.85;19.09
46456;BME280;64052;47.466;9.094;2023-04-06T15:59:19;95732.97;;;17.76;19.52
46456;BME280;64052;47.466;9.094;2023-04-06T16:04:21;95739.03;;;17.46;18.68
46456;BME280;64052;47.466;9.094;2023-04-06T16:09:23;95738.84;;;17.16;20.04
46456;BME280;64052;47.466;9.094;2023-04-06T16:14:24;95730.81;;;16.84;19.87
46456;BME280;64052;47.466;9.094;2023-04-06T16:19:26;95741.03;;;16.64;21.08
46456;BME280;64052;47.466;9.094;2023-04-06T16:24:27;95750.09;;;16.38;19.72
46456;BME280;64052;47.466;9.094;2023-04-06T16:29:29;95751.00;;;16.06;20.26
46456;BME280;64052;47.466;9.094;2023-04-06T16:34:32;95753.78;;;15.87;20.79
46456;BME280;64052;47.466;9.094;2023-04-06T16:39:33;95756.78;;;15.84;21.53
46456;BME280;64052;47.466;9.094;2023-04-06T16:44:35;95758.13;;;15.72;21.80
46456;BME280;64052;47.466;9.094;2023-04-06T16:49:36;95760.09;;;15.53;22.23
46456;BME280;64052;47.466;9.094;2023-04-06T16:54:38;95762.59;;;15.55;22.03
46456;BME280;64052;47.466;9.094;2023-04-06T16:59:40;95770.41;;;15.56;22.57
46456;BME280;64052;47.466;9.094;2023-04-06T17:04:41;95764.72;;;15.43;22.38
46456;BME280;64052;47.466;9.094;2023-04-06T17:09:43;95766.69;;;15.41;23.05
46456;BME280;64052;47.466;9.094;2023-04-06T17:14:44;95777.31;;;15.24;23.92
46456;BME280;64052;47.466;9.094;2023-04-06T17:19:46;95770.97;;;15.17;23.98
46456;BME280;64052;47.466;9.094;2023-04-06T17:24:47;95775.31;;;15.26;24.52
46456;BME280;64052;47.466;9.094;2023-04-06T17:29:49;95773.00;;;15.23;24.50
46456;BME280;64052;47.466;9.094;2023-04-06T17:34:50;95782.53;;;14.99;25.58
46456;BME280;64052;47.466;9.094;2023-04-06T17:39:52;95781.38;;;15.02;25.83
46456;BME280;64052;47.466;9.094;2023-04-06T17:44:57;95779.69;;;14.93;25.99
46456;BME280;64052;47.466;9.094;2023-04-06T17:50:00;95786.13;;;14.90;26.46
46456;BME280;64052;47.466;9.094;2023-04-06T17:55:02;95782.19;;;14.94;27.25
46456;BME280;64052;47.466;9.094;2023-04-06T18:00:04;95781.50;;;14.92;28.22
46456;BME280;64052;47.466;9.094;2023-04-06T18:05:06;95791.22;;;14.75;30.75
46456;BME280;64052;47.466;9.094;2023-04-06T18:10:08;95792.16;;;14.39;30.72
46456;BME280;64052;47.466;9.094;2023-04-06T18:15:10;95808.22;;;14.38;30.35
46456;BME280;64052;47.466;9.094;2023-04-06T18:20:11;95798.25;;;14.31;31.63
46456;BME280;64052;47.466;9.094;2023-04-06T18:25:16;95809.63;;;14.24;30.95
46456;BME280;64052;47.466;9.094;2023-04-06T18:30:17;95817.59;;;14.24;30.42
46456;BME280;64052;47.466;9.094;2023-04-06T18:35:19;95818.84;;;14.19;32.02
46456;BME280;64052;47.466;9.094;2023-04-06T18:40:37;95818.84;;;13.93;28.66
46456;BME280;64052;47.466;9.094;2023-04-06T18:45:39;95822.63;;;13.90;29.47
46456;BME280;64052;47.466;9.094;2023-04-06T18:50:50;95824.59;;;13.88;28.49
46456;BME280;64052;47.466;9.094;2023-04-06T18:55:52;95836.63;;;13.83;26.34
46456;BME280;64052;47.466;9.094;2023-04-06T19:00:54;95840.25;;;14.00;27.65
46456;BME280;64052;47.466;9.094;2023-04-06T19:05:56;95832.44;;;14.16;27.91
46456;BME280;64052;47.466;9.094;2023-04-06T19:10:57;95841.06;;;14.18;27.19
46456;BME280;64052;47.466;9.094;2023-04-06T19:16:00;95853.09;;;14.13;27.94
46456;BME280;64052;47.466;9.094;2023-04-06T19:21:03;95855.41;;;14.08;28.70
46456;BME280;64052;47.466;9.094;2023-04-06T19:26:08;95856.84;;;13.84;28.35
46456;BME280;64052;47.466;9.094;2023-04-06T19:31:11;95876.28;;;13.74;27.81
46456;BME280;64052;47.466;9.094;2023-04-06T19:36:13;95875.50;;;13.46;28.65
46456;BME280;64052;47.466;9.094;2023-04-06T19:41:14;95868.31;;;13.56;27.53
46456;BME280;64052;47.466;9.094;2023-04-06T19:46:16;95869.50;;;13.72;28.27
46456;BME280;64052;47.466;9.094;2023-04-06T19:51:17;95874.09;;;13.70;29.01
46456;BME280;64052;47.466;9.094;2023-04-06T19:56:19;95868.97;;;13.86;29.64
46456;BME280;64052;47.466;9.094;2023-04-06T20:01:20;95876.50;;;13.81;29.46
46456;BME280;64052;47.466;9.094;2023-04-06T20:06:22;95880.38;;;13.87;30.24
46456;BME280;64052;47.466;9.094;2023-04-06T20:11:23;95880.97;;;13.62;30.49
46456;BME280;64052;47.466;9.094;2023-04-06T20:16:25;95881.59;;;13.74;30.43
46456;BME280;64052;47.466;9.094;2023-04-06T20:21:27;95885.13;;;13.47;30.91
46456;BME280;64052;47.466;9.094;2023-04-06T20:26:28;95890.72;;;13.06;32.95
46456;BME280;64052;47.466;9.094;2023-04-06T20:31:30;95880.06;;;12.88;32.75
46456;BME280;64052;47.466;9.094;2023-04-06T20:36:31;95883.16;;;12.63;34.30
46456;BME280;64052;47.466;9.094;2023-04-06T20:41:33;95890.97;;;12.65;34.46
46456;BME280;64052;47.466;9.094;2023-04-06T20:46:35;95881.25;;;12.56;34.72
46456;BME280;64052;47.466;9.094;2023-04-06T20:51:36;95886.91;;;12.71;34.33
46456;BME280;64052;47.466;9.094;2023-04-06T20:56:38;95888.84;;;12.78;34.94
46456;BME280;64052;47.466;9.094;2023-04-06T21:01:39;95889.78;;;12.87;34.84
46456;BME280;64052;47.466;9.094;2023-04-06T21:06:41;95885.31;;;12.98;34.49
46456;BME280;64052;47.466;9.094;2023-04-06T21:11:42;95888.06;;;12.96;34.21
46456;BME280;64052;47.466;9.094;2023-04-06T21:16:44;95879.63;;;12.92;35.02
46456;BME280;64052;47.466;9.094;2023-04-06T21:21:45;95884.22;;;12.90;35.00
46456;BME280;64052;47.466;9.094;2023-04-06T21:26:47;95883.38;;;12.90;35.36
46456;BME280;64052;47.466;9.094;2023-04-06T21:31:49;95884.22;;;12.90;36.49
46456;BME280;64052;47.466;9.094;2023-04-06T21:36:50;95870.41;;;12.97;36.47
46456;BME280;64052;47.466;9.094;2023-04-06T21:41:52;95873.31;;;13.03;37.14
46456;BME280;64052;47.466;9.094;2023-04-06T21:46:54;95869.28;;;12.99;38.05
46456;BME280;64052;47.466;9.094;2023-04-06T21:51:55;95874.22;;;12.84;37.05
46456;BME280;64052;47.466;9.094;2023-04-06T21:56:57;95867.13;;;12.85;38.21
46456;BME280;64052;47.466;9.094;2023-04-06T22:01:58;95869.50;;;12.78;38.30
46456;BME280;64052;47.466;9.094;2023-04-06T22:07:00;95874.78;;;12.78;38.87
46456;BME280;64052;47.466;9.094;2023-04-06T22:12:01;95862.72;;;12.56;40.12
46456;BME280;64052;47.466;9.094;2023-04-06T22:17:03;95855.25;;;12.21;41.32
46456;BME280;64052;47.466;9.094;2023-04-06T22:22:04;95860.84;;;11.99;41.42
46456;BME280;64052;47.466;9.094;2023-04-06T22:27:06;95857.47;;;11.97;41.36
46456;BME280;64052;47.466;9.094;2023-04-06T22:32:07;95852.81;;;12.10;42.65
46456;BME280;64052;47.466;9.094;2023-04-06T22:37:09;95842.59;;;12.35;43.91
46456;BME280;64052;47.466;9.094;2023-04-06T22:42:11;95833.97;;;12.43;43.88
46456;BME280;64052;47.466;9.094;2023-04-06T22:47:12;95819.59;;;12.45;43.42
46456;BME280;64052;47.466;9.094;2023-04-06T22:52:14;95823.91;;;12.46;44.15
46456;BME280;64052;47.466;9.094;2023-04-06T22:57:15;95816.44;;;12.42;44.28
46456;BME280;64052;47.466;9.094;2023-04-06T23:02:17;95809.91;;;12.36;42.73
46456;BME280;64052;47.466;9.094;2023-04-06T23:07:18;95803.22;;;12.32;45.82
46456;BME280;64052;47.466;9.094;2023-04-06T23:12:20;95804.09;;;12.22;45.03
46456;BME280;64052;47.466;9.094;2023-04-06T23:17:21;95807.81;;;12.30;45.68
46456;BME280;64052;47.466;9.094;2023-04-06T23:22:23;95801.97;;;12.26;45.26
46456;BME280;64052;47.466;9.094;2023-04-06T23:27:24;95794.72;;;12.28;44.58
46456;BME280;64052;47.466;9.094;2023-04-06T23:32:26;95788.91;;;12.25;44.53
46456;BME280;64052;47.466;9.094;2023-04-06T23:37:28;95790.59;;;12.26;44.45
46456;BME280;64052;47.466;9.094;2023-04-06T23:42:29;95786.97;;;12.27;43.48
46456;BME280;64052;47.466;9.094;2023-04-06T23:47:32;95790.84;;;12.32;44.04
46456;BME280;64052;47.466;9.094;2023-04-06T23:52:34;95780.28;;;12.32;43.86
46456;BME280;64052;47.466;9.094;2023-04-06T23:57:36;95776.78;;;12.32;44.18
